createdAt,value
2019-02-23T00:00:18.298Z,2.84
2019-02-23T00:01:18.321Z,2.74
2019-02-23T00:02:18.352Z,2.83
2019-02-23T00:03:18.374Z,2.69
2019-02-23T00:04:18.402Z,2.69
2019-02-23T00:05:18.428Z,2.74
2019-02-23T00:06:28.963Z,2.76
2019-02-23T00:07:18.482Z,2.71
2019-02-23T00:08:18.508Z,2.73
2019-02-23T00:09:18.536Z,2.74
2019-02-23T00:10:18.567Z,2.77
2019-02-23T00:11:18.592Z,2.80
2019-02-23T00:12:18.619Z,2.80
2019-02-23T00:13:18.647Z,2.86
2019-02-23T00:14:18.672Z,2.81
2019-02-23T00:15:18.697Z,2.84
2019-02-23T00:16:18.730Z,2.80
2019-02-23T00:17:18.754Z,2.86
2019-02-23T00:18:18.786Z,2.86
2019-02-23T00:19:24.907Z,2.77
2019-02-23T00:20:18.831Z,2.89
2019-02-23T00:21:18.859Z,2.81
2019-02-23T00:22:18.886Z,2.86
2019-02-23T00:23:18.915Z,2.79
2019-02-23T00:24:18.940Z,2.79
2019-02-23T00:25:18.967Z,2.77
2019-02-23T00:26:18.994Z,2.81
2019-02-23T00:27:19.021Z,2.81
2019-02-23T00:28:19.046Z,2.80
2019-02-23T00:29:19.074Z,2.81
2019-02-23T00:30:19.100Z,2.69
2019-02-23T00:31:19.128Z,2.76
2019-02-23T00:32:19.231Z,2.76
2019-02-23T00:33:19.181Z,2.76
2019-02-23T00:34:19.207Z,2.74
2019-02-23T00:35:19.235Z,2.77
2019-02-23T00:36:19.261Z,2.69
2019-02-23T00:37:19.289Z,2.73
2019-02-23T00:38:19.316Z,2.73
2019-02-23T00:39:19.343Z,2.66
2019-02-23T00:40:19.368Z,2.77
2019-02-23T00:41:19.398Z,2.63
2019-02-23T00:42:19.425Z,2.68
2019-02-23T00:43:19.449Z,2.73
2019-02-23T00:44:19.476Z,2.65
2019-02-23T00:45:19.527Z,2.77
2019-02-23T00:46:19.531Z,2.62
2019-02-23T00:47:19.562Z,2.76
2019-02-23T00:48:19.582Z,2.66
2019-02-23T00:49:19.609Z,2.68
2019-02-23T00:50:19.637Z,2.61
2019-02-23T00:51:19.664Z,2.69
2019-02-23T00:52:19.697Z,2.65
2019-02-23T00:53:19.717Z,2.63
2019-02-23T00:54:19.745Z,2.68
2019-02-23T00:55:19.772Z,2.69
2019-02-23T00:56:19.798Z,2.59
2019-02-23T00:57:19.824Z,2.76
2019-02-23T00:58:19.852Z,2.66
2019-02-23T00:59:19.878Z,2.77
2019-02-23T01:00:19.905Z,2.74
2019-02-23T01:01:19.931Z,2.69
2019-02-23T01:02:19.960Z,2.66
2019-02-23T01:03:19.986Z,2.66
2019-02-23T01:04:20.011Z,2.71
2019-02-23T01:05:20.038Z,2.68
2019-02-23T01:06:20.067Z,2.66
2019-02-23T01:07:20.093Z,2.61
2019-02-23T01:08:20.122Z,2.69
2019-02-23T01:09:20.145Z,2.69
2019-02-23T01:10:20.270Z,2.66
2019-02-23T01:11:20.200Z,2.61
2019-02-23T01:12:20.225Z,2.50
2019-02-23T01:13:20.252Z,2.55
2019-02-23T01:14:20.279Z,2.30
2019-02-23T01:15:20.306Z,2.27
2019-02-23T01:16:20.331Z,2.20
2019-02-23T01:17:20.359Z,2.07
2019-02-23T01:18:20.387Z,2.08
2019-02-23T01:19:20.416Z,2.15
2019-02-23T01:20:20.438Z,2.18
2019-02-23T01:21:20.466Z,2.15
2019-02-23T01:22:20.492Z,2.05
2019-02-23T01:23:20.519Z,2.15
2019-02-23T01:24:20.546Z,2.15
2019-02-23T01:25:20.572Z,2.15
2019-02-23T01:26:20.599Z,2.22
2019-02-23T01:27:20.627Z,2.14
2019-02-23T01:28:20.651Z,2.12
2019-02-23T01:29:20.678Z,2.08
2019-02-23T01:30:20.705Z,2.09
2019-02-23T01:31:20.732Z,2.07
2019-02-23T01:32:20.758Z,2.05
2019-02-23T01:33:20.785Z,2.07
2019-02-23T01:34:20.815Z,2.09
2019-02-23T01:35:20.841Z,2.05
2019-02-23T01:36:20.864Z,2.05
2019-02-23T01:37:20.892Z,2.04
2019-02-23T01:38:20.917Z,2.07
2019-02-23T01:39:20.945Z,2.02
2019-02-23T01:40:20.971Z,1.98
2019-02-23T01:41:20.998Z,2.04
2019-02-23T01:42:21.023Z,2.02
2019-02-23T01:43:21.051Z,2.02
2019-02-23T01:44:21.076Z,1.95
2019-02-23T01:45:21.103Z,2.07
2019-02-23T01:46:21.129Z,1.95
2019-02-23T01:47:21.156Z,1.98
2019-02-23T01:48:21.182Z,1.93
2019-02-23T01:49:21.208Z,2.00
2019-02-23T01:50:21.237Z,2.01
2019-02-23T01:51:21.268Z,2.07
2019-02-23T01:52:21.286Z,2.05
2019-02-23T01:53:21.316Z,2.04
2019-02-23T01:54:21.340Z,2.05
2019-02-23T01:55:21.370Z,2.05
2019-02-23T01:56:21.392Z,2.05
2019-02-23T01:57:21.431Z,2.08
2019-02-23T01:58:21.445Z,2.07
2019-02-23T01:59:21.473Z,2.04
2019-02-23T02:00:21.497Z,2.02
2019-02-23T02:01:21.526Z,2.02
2019-02-23T02:02:21.551Z,2.05
2019-02-23T02:03:21.577Z,2.08
2019-02-23T02:04:21.603Z,2.05
2019-02-23T02:05:21.633Z,2.02
2019-02-23T02:06:21.658Z,1.92
2019-02-23T02:07:21.686Z,1.92
2019-02-23T02:08:21.715Z,1.98
2019-02-23T02:09:21.735Z,1.85
2019-02-23T02:10:21.761Z,1.90
2019-02-23T02:11:21.789Z,1.92
2019-02-23T02:12:21.814Z,1.90
2019-02-23T02:13:21.840Z,1.90
2019-02-23T02:14:21.869Z,1.75
2019-02-23T02:15:21.893Z,1.85
2019-02-23T02:16:21.919Z,1.83
2019-02-23T02:17:21.946Z,1.72
2019-02-23T02:18:21.972Z,1.82
2019-02-23T02:19:21.998Z,1.72
2019-02-23T02:20:22.025Z,1.63
2019-02-23T02:21:22.051Z,1.54
2019-02-23T02:22:22.079Z,1.52
2019-02-23T02:23:22.107Z,1.54
2019-02-23T02:24:22.129Z,1.32
2019-02-23T02:25:22.156Z,1.17
2019-02-23T02:26:22.184Z,1.14
2019-02-23T02:27:22.208Z,1.14
2019-02-23T02:28:22.233Z,1.14
2019-02-23T02:29:22.260Z,1.06
2019-02-23T02:30:22.309Z,1.00
2019-02-23T02:31:22.315Z,1.11
2019-02-23T02:32:22.340Z,1.11
2019-02-23T02:33:22.366Z,1.11
2019-02-23T02:34:22.390Z,1.14
2019-02-23T02:35:22.417Z,1.25
2019-02-23T02:36:22.445Z,1.24
2019-02-23T02:37:22.468Z,1.31
2019-02-23T02:38:22.494Z,1.28
2019-02-23T02:39:22.522Z,1.26
2019-02-23T02:40:22.547Z,1.25
2019-02-23T02:41:22.572Z,1.31
2019-02-23T02:42:22.599Z,1.34
2019-02-23T02:43:22.623Z,1.31
2019-02-23T02:44:22.648Z,1.26
2019-02-23T02:45:22.677Z,1.17
2019-02-23T02:46:22.702Z,1.13
2019-02-23T02:47:22.729Z,1.17
2019-02-23T02:48:22.752Z,1.16
2019-02-23T02:49:22.782Z,1.16
2019-02-23T02:50:24.483Z,1.21
2019-02-23T02:51:22.831Z,1.13
2019-02-23T02:52:22.856Z,1.17
2019-02-23T02:53:22.882Z,1.16
2019-02-23T02:54:22.907Z,1.13
2019-02-23T02:55:22.934Z,1.10
2019-02-23T02:56:22.958Z,1.11
2019-02-23T02:57:22.988Z,1.13
2019-02-23T02:58:23.018Z,1.10
2019-02-23T02:59:23.038Z,1.14
2019-02-23T03:00:23.066Z,1.06
2019-02-23T03:01:23.088Z,1.00
2019-02-23T03:02:23.116Z,1.06
2019-02-23T03:03:23.140Z,1.00
2019-02-23T03:04:23.167Z,0.99
2019-02-23T03:05:23.193Z,1.10
2019-02-23T03:06:23.217Z,1.06
2019-02-23T03:07:23.245Z,1.17
2019-02-23T03:08:23.269Z,1.02
2019-02-23T03:09:23.294Z,1.06
2019-02-23T03:10:23.321Z,1.06
2019-02-23T03:11:23.348Z,1.17
2019-02-23T03:12:23.373Z,1.20
2019-02-23T03:13:23.400Z,1.14
2019-02-23T03:14:23.424Z,1.07
2019-02-23T03:15:23.466Z,1.14
2019-02-23T03:16:23.486Z,1.14
2019-02-23T03:17:23.503Z,1.17
2019-02-23T03:18:23.526Z,1.10
2019-02-23T03:19:23.553Z,1.11
2019-02-23T03:20:35.988Z,1.13
2019-02-23T03:21:23.604Z,1.04
2019-02-23T03:22:23.633Z,1.04
2019-02-23T03:23:23.656Z,1.00
2019-02-23T03:24:23.682Z,0.96
2019-02-23T03:25:23.707Z,1.00
2019-02-23T03:26:23.736Z,0.99
2019-02-23T03:27:23.759Z,0.90
2019-02-23T03:28:23.784Z,1.07
2019-02-23T03:29:23.809Z,1.00
2019-02-23T03:30:23.842Z,1.02
2019-02-23T03:31:23.868Z,1.00
2019-02-23T03:32:23.888Z,1.08
2019-02-23T03:33:23.918Z,1.08
2019-02-23T03:34:23.939Z,0.98
2019-02-23T03:35:23.967Z,0.95
2019-02-23T03:36:23.990Z,0.96
2019-02-23T03:37:24.015Z,0.92
2019-02-23T03:38:24.043Z,0.88
2019-02-23T03:39:24.067Z,0.82
2019-02-23T03:40:24.094Z,0.75
2019-02-23T03:41:24.117Z,0.82
2019-02-23T03:42:24.143Z,0.74
2019-02-23T03:43:24.171Z,0.77
2019-02-23T03:44:24.202Z,0.81
2019-02-23T03:45:24.220Z,0.78
2019-02-23T03:46:24.246Z,0.80
2019-02-23T03:47:24.274Z,0.81
2019-02-23T03:48:24.297Z,0.86
2019-02-23T03:49:24.326Z,0.93
2019-02-23T03:50:24.350Z,0.82
2019-02-23T03:51:24.377Z,0.88
2019-02-23T03:52:24.417Z,0.81
2019-02-23T03:53:24.431Z,0.92
2019-02-23T03:54:24.451Z,0.95
2019-02-23T03:55:24.479Z,0.96
2019-02-23T03:56:30.926Z,0.98
2019-02-23T03:58:26.722Z,0.95
2019-02-23T03:59:26.723Z,0.84
2019-02-23T04:01:28.896Z,0.86
2019-02-23T04:02:28.917Z,0.77
2019-02-23T04:04:32.949Z,0.84
2019-02-23T04:05:32.962Z,0.84
2019-02-23T04:07:25.887Z,0.84
2019-02-23T04:08:25.911Z,0.81
2019-02-23T04:10:29.945Z,0.93
2019-02-23T04:11:29.945Z,0.98
2019-02-23T04:13:33.960Z,0.95
2019-02-23T04:14:33.982Z,0.89
2019-02-23T04:16:38.005Z,0.90
2019-02-23T04:17:38.024Z,0.95
2019-02-23T04:19:42.037Z,0.89
2019-02-23T04:20:42.059Z,0.93
2019-02-23T04:22:46.071Z,0.95
2019-02-23T04:23:46.095Z,1.02
2019-02-23T04:25:50.106Z,1.00
2019-02-23T04:26:50.128Z,1.08
2019-02-23T04:28:53.205Z,1.04
2019-02-23T04:29:53.182Z,0.99
2019-02-23T04:31:55.265Z,0.96
2019-02-23T04:32:55.257Z,1.04
2019-02-23T04:34:57.487Z,1.00
2019-02-23T04:35:57.508Z,0.93
2019-02-23T04:37:50.442Z,1.07
2019-02-23T04:38:50.474Z,1.17
2019-02-23T04:40:54.485Z,1.17
2019-02-23T04:41:54.500Z,1.18
2019-02-23T04:43:58.561Z,1.35
2019-02-23T04:44:58.539Z,1.39
2019-02-23T04:47:02.548Z,1.34
2019-02-23T04:48:02.570Z,1.36
2019-02-23T04:50:06.625Z,1.44
2019-02-23T04:51:14.439Z,1.44
2019-02-23T04:53:10.623Z,1.47
2019-02-23T04:54:10.645Z,1.42
2019-02-23T04:56:14.673Z,1.47
2019-02-23T04:57:14.678Z,1.49
2019-02-23T04:59:18.692Z,1.47
2019-02-23T05:00:18.713Z,1.44
2019-02-23T05:02:22.733Z,1.46
2019-02-23T05:03:22.751Z,1.49
2019-02-23T05:05:26.763Z,1.42
2019-02-23T05:06:26.798Z,1.47
2019-02-23T05:08:30.799Z,1.50
2019-02-23T05:09:30.823Z,1.46
2019-02-23T05:11:34.838Z,1.39
2019-02-23T05:12:34.859Z,1.43
2019-02-23T05:14:37.176Z,1.36
2019-02-23T05:15:37.196Z,1.39
2019-02-23T05:17:30.297Z,1.36
2019-02-23T05:18:30.157Z,1.38
2019-02-23T05:20:34.193Z,1.42
2019-02-23T05:21:34.190Z,1.34
2019-02-23T05:23:38.209Z,1.35
2019-02-23T05:24:38.232Z,1.35
2019-02-23T05:26:42.247Z,1.38
2019-02-23T05:27:42.269Z,1.36
2019-02-23T05:29:46.285Z,1.32
2019-02-23T05:30:46.306Z,1.32
2019-02-23T05:32:50.320Z,1.35
2019-02-23T05:33:50.351Z,1.36
2019-02-23T05:35:54.354Z,1.28
2019-02-23T05:36:54.376Z,1.32
2019-02-23T05:38:58.410Z,1.26
2019-02-23T05:39:58.412Z,1.24
2019-02-23T05:42:02.427Z,1.24
2019-02-23T05:43:02.494Z,1.28
2019-02-23T05:45:06.487Z,1.13
2019-02-23T05:46:06.482Z,1.14
2019-02-23T05:47:59.419Z,1.14
2019-02-23T05:48:59.442Z,1.13
2019-02-23T05:51:03.473Z,1.14
2019-02-23T05:52:03.475Z,1.21
2019-02-23T05:54:07.508Z,1.28
2019-02-23T05:55:07.511Z,1.34
2019-02-23T05:57:11.523Z,1.24
2019-02-23T05:58:11.544Z,1.25
2019-02-23T06:00:15.560Z,1.24
2019-02-23T06:01:15.583Z,1.13
2019-02-23T06:03:19.593Z,1.14
2019-02-23T06:04:19.618Z,1.25
2019-02-23T06:06:22.743Z,1.24
2019-02-23T06:07:22.766Z,1.20
2019-02-23T06:09:26.796Z,1.07
2019-02-23T06:10:26.801Z,1.16
2019-02-23T06:12:30.815Z,1.14
2019-02-23T06:13:30.836Z,1.08
2019-02-23T06:15:34.846Z,1.04
2019-02-23T06:16:34.872Z,1.02
2019-02-23T06:18:38.902Z,1.07
2019-02-23T06:19:38.920Z,1.06
2019-02-23T06:21:52.736Z,1.08
2019-02-23T06:22:42.955Z,1.10
2019-02-23T06:24:46.985Z,1.13
2019-02-23T06:25:46.989Z,1.13
2019-02-23T06:27:39.925Z,1.17
2019-02-23T06:28:39.950Z,1.25
2019-02-23T06:30:44.014Z,1.24
2019-02-23T06:31:43.985Z,1.28
2019-02-23T06:33:48.025Z,1.29
2019-02-23T06:34:48.043Z,1.38
2019-02-23T06:36:52.055Z,1.39
2019-02-23T06:37:53.436Z,1.31
2019-02-23T06:39:54.091Z,1.46
2019-02-23T06:40:54.098Z,1.44
2019-02-23T06:42:58.123Z,1.49
2019-02-23T06:43:58.140Z,1.49
2019-02-23T06:46:02.170Z,1.46
2019-02-23T06:47:02.175Z,1.53
2019-02-23T06:49:06.211Z,1.54
2019-02-23T06:50:06.217Z,1.56
2019-02-23T06:52:08.207Z,1.56
2019-02-23T06:53:08.229Z,1.46
2019-02-23T06:55:10.226Z,1.39
2019-02-23T06:56:10.247Z,1.31
2019-02-23T06:58:02.174Z,1.02
2019-02-23T06:59:02.196Z,1.07
2019-02-23T07:01:12.377Z,0.88
2019-02-23T07:02:04.408Z,0.77
2019-02-23T07:04:06.409Z,0.89
2019-02-23T07:05:06.434Z,0.81
2019-02-23T07:07:10.449Z,1.00
2019-02-23T07:08:10.464Z,1.08
2019-02-23T07:10:14.478Z,1.13
2019-02-23T07:11:14.497Z,1.16
2019-02-23T07:13:18.515Z,1.35
2019-02-23T07:14:18.534Z,1.36
2019-02-23T07:16:22.549Z,1.50
2019-02-23T07:17:22.651Z,1.57
2019-02-23T07:19:26.583Z,1.64
2019-02-23T07:20:26.608Z,1.65
2019-02-23T07:22:30.638Z,1.72
2019-02-23T07:23:30.639Z,1.74
2019-02-23T07:25:34.655Z,1.68
2019-02-23T07:26:34.675Z,1.68
2019-02-23T07:28:38.688Z,1.70
2019-02-23T07:29:38.709Z,1.74
2019-02-23T07:31:42.724Z,1.71
2019-02-23T07:32:42.743Z,1.71
2019-02-23T07:34:46.761Z,1.77
2019-02-23T07:35:46.778Z,1.77
2019-02-23T07:37:39.736Z,1.81
2019-02-23T07:38:39.753Z,1.88
2019-02-23T07:40:43.759Z,1.70
2019-02-23T07:41:43.784Z,1.67
2019-02-23T07:43:45.777Z,1.53
2019-02-23T07:44:45.802Z,1.53
2019-02-23T07:46:47.801Z,1.53
2019-02-23T07:47:47.824Z,1.43
2019-02-23T07:49:49.820Z,1.42
2019-02-23T07:50:49.843Z,1.44
2019-02-23T07:52:51.844Z,1.42
2019-02-23T07:53:51.864Z,1.43
2019-02-23T07:55:55.879Z,1.32
2019-02-23T07:56:55.899Z,1.26
2019-02-23T07:58:59.916Z,1.13
2019-02-23T07:59:59.936Z,1.10
2019-02-23T08:02:03.951Z,0.93
2019-02-23T08:03:03.974Z,0.96
2019-02-23T08:05:08.089Z,1.04
2019-02-23T08:06:08.007Z,1.04
2019-02-23T08:08:00.947Z,1.11
2019-02-23T08:09:01.018Z,1.14
2019-02-23T08:11:04.979Z,1.21
2019-02-23T08:12:05.000Z,1.32
2019-02-23T08:14:09.012Z,1.61
2019-02-23T08:15:09.036Z,1.63
2019-02-23T08:17:13.047Z,1.77
2019-02-23T08:18:13.068Z,1.77
2019-02-23T08:20:17.111Z,1.93
2019-02-23T08:21:17.104Z,2.08
2019-02-23T08:23:21.119Z,2.19
2019-02-23T08:24:21.137Z,2.19
2019-02-23T08:26:25.151Z,2.22
2019-02-23T08:27:25.171Z,2.20
2019-02-23T08:29:29.201Z,2.45
2019-02-23T08:30:29.206Z,2.38
2019-02-23T08:32:33.223Z,2.36
2019-02-23T08:33:33.245Z,2.32
2019-02-23T08:35:37.255Z,2.15
2019-02-23T08:36:37.282Z,2.29
2019-02-23T08:38:39.277Z,2.32
2019-02-23T08:39:39.298Z,2.30
2019-02-23T08:41:43.417Z,2.40
2019-02-23T08:42:43.332Z,2.33
2019-02-23T08:44:45.351Z,2.50
2019-02-23T08:45:45.356Z,2.62
2019-02-23T08:47:38.299Z,2.66
2019-02-23T08:48:38.319Z,2.74
2019-02-23T08:50:42.349Z,2.95
2019-02-23T08:51:42.353Z,3.02
2019-02-23T08:53:44.357Z,3.20
2019-02-23T08:54:44.375Z,3.25
2019-02-23T08:56:46.372Z,3.44
2019-02-23T08:57:46.396Z,3.30
2019-02-23T08:59:48.415Z,3.46
2019-02-23T09:00:48.451Z,3.59
2019-02-23T09:02:51.425Z,3.75
2019-02-23T09:03:51.446Z,3.81
2019-02-23T09:05:55.479Z,3.84
2019-02-23T09:06:55.488Z,3.82
2019-02-23T09:08:59.503Z,3.84
2019-02-23T09:09:59.522Z,3.75
2019-02-23T09:12:03.566Z,3.89
2019-02-23T09:13:03.566Z,3.86
2019-02-23T09:15:07.674Z,4.08
2019-02-23T09:16:07.604Z,4.46
2019-02-23T09:18:00.544Z,4.56
2019-02-23T09:19:00.569Z,4.86
2019-02-23T09:21:02.594Z,5.49
2019-02-23T09:22:02.595Z,6.03
2019-02-23T09:24:06.620Z,6.91
2019-02-23T09:25:06.635Z,7.21
2019-02-23T09:27:08.778Z,7.41
2019-02-23T09:28:08.685Z,7.69
2019-02-23T09:30:10.692Z,8.27
2019-02-23T09:31:10.715Z,8.42
2019-02-23T09:33:13.816Z,9.00
2019-02-23T09:34:13.811Z,9.15
2019-02-23T09:36:15.991Z,9.52
2019-02-23T09:37:16.016Z,9.70
2019-02-23T09:39:19.134Z,9.30
2019-02-23T09:40:19.139Z,9.31
2019-02-23T09:42:22.290Z,9.38
2019-02-23T09:43:22.300Z,9.30
2019-02-23T09:45:26.320Z,9.15
2019-02-23T09:46:26.345Z,9.10
2019-02-23T09:48:28.514Z,8.75
2019-02-23T09:49:28.524Z,8.68
2019-02-23T09:51:30.787Z,8.54
2019-02-23T09:52:30.811Z,8.47
2019-02-23T09:54:32.839Z,8.47
2019-02-23T09:55:32.865Z,8.43
2019-02-23T09:57:25.827Z,8.42
2019-02-23T09:58:25.837Z,8.28
2019-02-23T10:00:29.860Z,8.14
2019-02-23T10:01:29.885Z,8.09
2019-02-23T10:03:33.910Z,7.86
2019-02-23T10:04:33.938Z,7.77
2019-02-23T10:06:37.958Z,7.63
2019-02-23T10:07:37.984Z,7.57
2019-02-23T10:09:42.009Z,7.63
2019-02-23T10:10:42.032Z,7.73
2019-02-23T10:12:46.113Z,7.88
2019-02-23T10:13:46.084Z,8.02
2019-02-23T10:14:46.114Z,8.12
2019-02-23T10:15:46.145Z,8.06
2019-02-23T10:16:46.176Z,8.07
2019-02-23T10:17:46.206Z,8.14
2019-02-23T10:18:46.238Z,8.13
2019-02-23T10:19:46.270Z,8.31
2019-02-23T10:20:46.306Z,8.25
2019-02-23T10:21:46.334Z,8.39
2019-02-23T10:22:46.368Z,8.50
2019-02-23T10:23:46.401Z,8.52
2019-02-23T10:24:46.435Z,8.64
2019-02-23T10:25:46.467Z,8.68
2019-02-23T10:26:46.506Z,8.76
2019-02-23T10:27:46.562Z,8.91
2019-02-23T10:28:46.575Z,9.15
2019-02-23T10:29:46.610Z,9.31
2019-02-23T10:30:46.646Z,9.31
2019-02-23T10:31:46.682Z,9.52
2019-02-23T10:32:46.720Z,9.63
2019-02-23T10:33:47.931Z,9.65
2019-02-23T10:34:46.794Z,9.81
2019-02-23T10:35:46.831Z,10.09
2019-02-23T10:36:46.869Z,10.63
2019-02-23T10:37:46.908Z,11.26
2019-02-23T10:38:46.955Z,12.18
2019-02-23T10:39:46.983Z,13.17
2019-02-23T10:40:47.023Z,13.93
2019-02-23T10:41:47.062Z,14.59
2019-02-23T10:42:47.099Z,15.51
2019-02-23T10:43:47.140Z,16.37
2019-02-23T10:44:47.183Z,17.36
2019-02-23T10:45:47.218Z,18.29
2019-02-23T10:46:47.260Z,19.28
2019-02-23T10:47:47.301Z,20.17
2019-02-23T10:48:47.342Z,20.96
2019-02-23T10:49:47.384Z,21.91
2019-02-23T10:50:47.419Z,22.60
2019-02-23T10:51:47.461Z,22.94
2019-02-23T10:52:47.509Z,23.62
2019-02-23T10:53:47.543Z,24.16
2019-02-23T10:54:47.585Z,24.94
2019-02-23T10:55:47.629Z,25.35
2019-02-23T10:56:47.670Z,25.66
2019-02-23T10:57:47.711Z,26.21
2019-02-23T10:58:47.755Z,26.84
2019-02-23T10:59:47.797Z,27.28
2019-02-23T11:00:47.840Z,27.83
2019-02-23T11:01:47.882Z,28.15
2019-02-23T11:02:48.133Z,28.28
2019-02-23T11:03:47.970Z,28.17
2019-02-23T11:04:48.014Z,28.30
2019-02-23T11:05:48.054Z,28.43
2019-02-23T11:06:48.098Z,28.62
2019-02-23T11:07:48.144Z,28.91
2019-02-23T11:08:48.187Z,28.74
2019-02-23T11:09:48.231Z,28.89
2019-02-23T11:10:48.273Z,28.88
2019-02-23T11:11:48.533Z,29.12
2019-02-23T11:12:48.362Z,28.80
2019-02-23T11:13:48.404Z,28.82
2019-02-23T11:14:48.449Z,29.03
2019-02-23T11:15:48.494Z,29.42
2019-02-23T11:16:48.540Z,29.51
2019-02-23T11:17:48.582Z,30.11
2019-02-23T11:18:48.627Z,30.13
2019-02-23T11:19:48.672Z,30.48
2019-02-23T11:20:48.718Z,30.81
2019-02-23T11:21:48.760Z,31.45
2019-02-23T11:22:48.807Z,31.56
2019-02-23T11:23:48.857Z,31.76
2019-02-23T11:24:48.896Z,31.88
2019-02-23T11:25:48.940Z,31.72
2019-02-23T11:26:48.986Z,31.97
2019-02-23T11:27:49.038Z,32.09
2019-02-23T11:28:49.076Z,32.03
2019-02-23T11:29:49.122Z,31.15
2019-02-23T11:30:49.168Z,30.79
2019-02-23T11:31:49.217Z,30.60
2019-02-23T11:32:49.259Z,30.68
2019-02-23T11:33:49.304Z,30.53
2019-02-23T11:34:49.351Z,30.57
2019-02-23T11:35:49.397Z,30.51
2019-02-23T11:36:49.444Z,29.54
2019-02-23T11:37:49.487Z,29.55
2019-02-23T11:38:49.534Z,29.57
2019-02-23T11:39:49.580Z,30.00
2019-02-23T11:40:49.626Z,30.30
2019-02-23T11:41:49.670Z,30.51
2019-02-23T11:42:49.718Z,30.72
2019-02-23T11:43:49.762Z,30.91
2019-02-23T11:44:49.807Z,29.94
2019-02-23T11:45:49.851Z,29.08
2019-02-23T11:47:00.019Z,28.40
2019-02-23T11:47:49.945Z,27.91
2019-02-23T11:48:49.989Z,27.48
2019-02-23T11:49:50.042Z,26.56
2019-02-23T11:50:50.077Z,26.11
2019-02-23T11:51:50.123Z,26.16
2019-02-23T11:52:50.171Z,26.49
2019-02-23T11:53:55.073Z,26.51
2019-02-23T11:54:50.257Z,27.08
2019-02-23T11:55:50.301Z,27.80
2019-02-23T11:56:50.350Z,28.62
2019-02-23T11:57:50.391Z,29.10
2019-02-23T11:58:50.437Z,29.37
2019-02-23T11:59:50.480Z,29.67
2019-02-23T12:00:50.528Z,30.23
2019-02-23T12:01:50.569Z,30.67
2019-02-23T12:02:52.675Z,30.73
2019-02-23T12:03:50.661Z,30.73
2019-02-23T12:04:50.703Z,30.63
2019-02-23T12:05:50.747Z,30.67
2019-02-23T12:06:50.791Z,30.49
2019-02-23T12:07:50.845Z,30.36
2019-02-23T12:08:50.880Z,30.40
2019-02-23T12:09:50.925Z,30.40
2019-02-23T12:10:50.969Z,30.67
2019-02-23T12:11:51.013Z,30.53
2019-02-23T12:12:51.062Z,30.36
2019-02-23T12:13:51.100Z,29.97
2019-02-23T12:14:51.146Z,30.03
2019-02-23T12:15:51.189Z,29.52
2019-02-23T12:16:51.233Z,28.51
2019-02-23T12:17:51.315Z,27.61
2019-02-23T12:18:51.320Z,27.18
2019-02-23T12:19:51.364Z,26.08
2019-02-23T12:20:51.409Z,25.45
2019-02-23T12:21:51.451Z,25.05
2019-02-23T12:22:51.494Z,24.59
2019-02-23T12:23:51.540Z,24.14
2019-02-23T12:24:51.581Z,24.06
2019-02-23T12:25:51.630Z,23.93
2019-02-23T12:26:51.665Z,23.71
2019-02-23T12:27:51.708Z,23.53
2019-02-23T12:28:51.750Z,23.37
2019-02-23T12:29:51.792Z,23.00
2019-02-23T12:30:51.834Z,22.67
2019-02-23T12:31:51.876Z,22.33
2019-02-23T12:32:51.917Z,22.33
2019-02-23T12:33:51.957Z,22.02
2019-02-23T12:34:52.000Z,21.64
2019-02-23T12:35:52.040Z,21.58
2019-02-23T12:36:52.082Z,21.56
2019-02-23T12:37:52.121Z,21.61
2019-02-23T12:38:52.163Z,20.98
2019-02-23T12:39:52.202Z,20.61
2019-02-23T12:40:52.244Z,20.01
2019-02-23T12:41:52.283Z,19.89
2019-02-23T12:42:52.323Z,19.60
2019-02-23T12:43:52.364Z,19.64
2019-02-23T12:44:52.403Z,19.55
2019-02-23T12:45:52.443Z,19.53
2019-02-23T12:46:52.483Z,19.65
2019-02-23T12:47:52.549Z,19.76
2019-02-23T12:48:52.563Z,19.47
2019-02-23T12:49:52.601Z,18.86
2019-02-23T12:50:52.645Z,18.66
2019-02-23T12:51:52.679Z,18.41
2019-02-23T12:52:52.720Z,18.32
2019-02-23T12:53:52.757Z,18.31
2019-02-23T12:54:52.795Z,18.44
2019-02-23T12:55:52.835Z,18.46
2019-02-23T12:56:52.873Z,18.44
2019-02-23T12:57:52.911Z,18.56
2019-02-23T12:58:52.948Z,18.66
2019-02-23T12:59:52.988Z,18.75
2019-02-23T13:00:53.026Z,18.97
2019-02-23T13:01:53.066Z,19.09
2019-02-23T13:02:53.102Z,19.23
2019-02-23T13:03:53.138Z,19.38
2019-02-23T13:04:53.181Z,19.57
2019-02-23T13:05:53.216Z,19.55
2019-02-23T13:06:53.253Z,19.57
2019-02-23T13:07:53.290Z,19.60
2019-02-23T13:08:53.329Z,19.50
2019-02-23T13:09:53.366Z,19.67
2019-02-23T13:10:53.405Z,19.76
2019-02-23T13:11:53.444Z,19.79
2019-02-23T13:12:53.481Z,19.68
2019-02-23T13:13:53.519Z,19.80
2019-02-23T13:14:53.556Z,19.72
2019-02-23T13:15:53.595Z,19.58
2019-02-23T13:16:53.633Z,19.58
2019-02-23T13:17:53.670Z,19.40
2019-02-23T13:18:53.710Z,18.78
2019-02-23T13:19:53.748Z,18.62
2019-02-23T13:20:53.786Z,18.29
2019-02-23T13:21:53.858Z,18.29
2019-02-23T13:22:53.860Z,18.23
2019-02-23T13:23:53.903Z,18.16
2019-02-23T13:24:53.937Z,17.96
2019-02-23T13:25:53.974Z,17.74
2019-02-23T13:26:54.013Z,17.81
2019-02-23T13:27:54.051Z,18.17
2019-02-23T13:28:54.096Z,18.16
2019-02-23T13:29:54.125Z,18.47
2019-02-23T13:30:54.167Z,18.90
2019-02-23T13:31:54.201Z,19.32
2019-02-23T13:32:54.303Z,19.49
2019-02-23T13:33:54.281Z,19.78
2019-02-23T13:34:54.316Z,19.78
2019-02-23T13:35:54.354Z,19.90
2019-02-23T13:36:54.393Z,19.95
2019-02-23T13:37:54.430Z,19.57
2019-02-23T13:38:54.470Z,19.46
2019-02-23T13:39:54.508Z,19.55
2019-02-23T13:40:54.548Z,19.64
2019-02-23T13:41:54.584Z,20.13
2019-02-23T13:42:54.622Z,20.71
2019-02-23T13:43:54.660Z,21.15
2019-02-23T13:44:54.703Z,21.56
2019-02-23T13:45:54.737Z,21.90
2019-02-23T13:46:54.776Z,22.20
2019-02-23T13:47:54.816Z,22.45
2019-02-23T13:48:54.858Z,22.85
2019-02-23T13:49:54.893Z,23.38
2019-02-23T13:50:54.935Z,23.87
2019-02-23T13:51:54.979Z,24.19
2019-02-23T13:52:55.014Z,24.68
2019-02-23T13:53:55.052Z,25.08
2019-02-23T13:54:55.092Z,25.38
2019-02-23T13:55:55.134Z,25.72
2019-02-23T13:56:55.179Z,25.79
2019-02-23T13:57:55.215Z,26.03
2019-02-23T13:58:55.256Z,26.24
2019-02-23T13:59:55.297Z,26.35
2019-02-23T14:00:55.343Z,26.29
2019-02-23T14:01:55.378Z,26.06
2019-02-23T14:02:55.419Z,26.11
2019-02-23T14:03:55.463Z,26.11
2019-02-23T14:04:55.505Z,26.03
2019-02-23T14:05:55.544Z,25.97
2019-02-23T14:06:55.587Z,25.86
2019-02-23T14:07:55.641Z,25.97
2019-02-23T14:08:55.671Z,26.27
2019-02-23T14:09:55.712Z,26.38
2019-02-23T14:10:55.757Z,26.17
2019-02-23T14:11:55.797Z,26.16
2019-02-23T14:12:55.839Z,26.17
2019-02-23T14:13:55.882Z,26.39
2019-02-23T14:14:55.927Z,26.46
2019-02-23T14:15:55.966Z,27.03
2019-02-23T14:16:56.012Z,27.31
2019-02-23T14:17:56.053Z,27.35
2019-02-23T14:18:56.096Z,27.40
2019-02-23T14:19:56.137Z,27.42
2019-02-23T14:20:56.183Z,27.24
2019-02-23T14:21:56.224Z,27.06
2019-02-23T14:22:58.213Z,27.20
2019-02-23T14:23:56.310Z,27.38
2019-02-23T14:24:56.353Z,27.43
2019-02-23T14:25:57.063Z,27.35
2019-02-23T14:26:56.441Z,27.34
2019-02-23T14:27:56.481Z,27.08
2019-02-23T14:28:56.525Z,26.64
2019-02-23T14:29:56.566Z,26.16
2019-02-23T14:30:56.610Z,25.97
2019-02-23T14:31:56.653Z,26.24
2019-02-23T14:32:56.696Z,26.28
2019-02-23T14:33:56.741Z,26.61
2019-02-23T14:34:56.782Z,26.49
2019-02-23T14:35:56.826Z,26.60
2019-02-23T14:36:56.908Z,26.29
2019-02-23T14:37:56.911Z,26.01
2019-02-23T14:38:56.964Z,25.72
2019-02-23T14:39:57.028Z,25.74
2019-02-23T14:40:57.037Z,25.74
2019-02-23T14:41:57.163Z,25.72
2019-02-23T14:42:57.121Z,25.66
2019-02-23T14:43:57.206Z,25.53
2019-02-23T14:44:57.207Z,25.44
2019-02-23T14:45:57.249Z,25.19
2019-02-23T14:46:57.295Z,25.11
2019-02-23T14:47:57.330Z,24.60
2019-02-23T14:48:57.376Z,24.09
2019-02-23T14:49:57.414Z,23.78
2019-02-23T14:50:57.544Z,23.11
2019-02-23T14:51:57.525Z,22.75
2019-02-23T14:52:57.566Z,22.64
2019-02-23T14:53:57.620Z,22.45
2019-02-23T14:55:00.940Z,22.38
2019-02-23T14:55:57.657Z,21.99
2019-02-23T14:56:57.697Z,21.64
2019-02-23T14:57:57.746Z,21.28
2019-02-23T14:58:57.780Z,21.05
2019-02-23T14:59:57.815Z,20.75
2019-02-23T15:00:57.855Z,20.37
2019-02-23T15:01:57.895Z,19.94
2019-02-23T15:02:57.931Z,19.32
2019-02-23T15:03:57.970Z,18.76
2019-02-23T15:04:58.009Z,18.39
2019-02-23T15:05:58.052Z,17.95
2019-02-23T15:06:58.084Z,17.57
2019-02-23T15:07:58.129Z,17.32
2019-02-23T15:08:58.159Z,16.96
2019-02-23T15:09:58.199Z,16.69
2019-02-23T15:10:58.233Z,16.30
2019-02-23T15:11:58.276Z,16.07
2019-02-23T15:12:58.311Z,15.49
2019-02-23T15:13:58.345Z,15.18
2019-02-23T15:14:58.381Z,14.79
2019-02-23T15:15:58.418Z,14.46
2019-02-23T15:16:58.454Z,14.27
2019-02-23T15:17:58.490Z,14.08
2019-02-23T15:18:58.531Z,13.98